< < Back
Terminal Aerodrome Forecast


Current Version              Previous Versions:   1  2  3  4  5  6  7  8  9  

Terminal Aerodrome Forecast

059
FTUS42 KFFC 301131
TAFCSG
TAF
KCSG 301131Z 3012/0112 VRB03KT P6SM SCT070 BKN250
     FM301500 17008KT P6SM BKN045
     FM301800 19008KT P6SM VCSH BKN050
     FM010000 17006KT P6SM SCT050 BKN250
     FM010900 23005KT P6SM BKN020=

Latest METAR

515
SAUS70 KWBC 011000 RRF
MTRCSG
METAR KCSG 010951Z AUTO 00000KT 10SM CLR 20/18 A2998 RMK AO2 SLP147
T02000178


USA.gov is the U.S. government's official web portal to all federal, state and local government web resources and services.